Time;durP1;ratioP1;P1;durP2;ratioP2;P2;SDS_P1;SDS_P2;PMS_P1;PMS_P2;Temp;Humidity;BMP_temperature;BMP_pressure;BME280_temperature;BME280_humidity;BME280_pressure;Samples;Min_cycle;Max_cycle;Signal;HPM_P1;HPM_P2
2021/10/26 00:01:03;;;;;;;;;7.25;6.00;;;;;22.99;42.60;101887.31;5055691;28;45348;-67
2021/10/26 00:03:29;;;;;;;;;6.75;4.75;;;;;22.99;42.69;101903.22;5054395;28;45458;-69
2021/10/26 00:05:54;;;;;;;;;5.00;5.00;;;;;22.99;42.60;101900.59;5054605;28;45479;-69
2021/10/26 00:08:19;;;;;;;;;6.00;4.25;;;;;22.99;42.52;101902.41;5054859;28;45485;-68
2021/10/26 00:10:45;;;;;;;;;7.25;7.25;;;;;22.99;42.57;101907.69;5054962;28;45303;-69
2021/10/26 00:13:11;;;;;;;;;5.00;4.75;;;;;23.00;42.39;101901.41;5054850;28;46249;-68
2021/10/26 00:15:37;;;;;;;;;5.75;5.00;;;;;23.00;42.36;101906.72;5054778;28;45814;-68
2021/10/26 00:18:02;;;;;;;;;8.00;5.00;;;;;23.00;42.52;101909.38;5054766;28;45328;-69
2021/10/26 00:20:30;;;;;;;;;6.00;5.00;;;;;23.00;42.28;101906.72;5054719;28;45234;-68
2021/10/26 00:22:55;;;;;;;;;4.00;4.00;;;;;22.99;42.38;101913.84;5054613;28;47437;-68
2021/10/26 00:25:21;;;;;;;;;6.25;4.50;;;;;23.00;42.05;101910.22;5054575;28;45431;-69
2021/10/26 00:27:46;;;;;;;;;6.25;4.25;;;;;22.97;42.17;101899.91;5055226;28;45430;-69
2021/10/26 00:30:12;;;;;;;;;7.25;5.00;;;;;23.00;42.54;101909.38;5054181;28;45424;-68
2021/10/26 00:32:37;;;;;;;;;7.00;5.25;;;;;22.96;42.42;101908.84;5054334;28;46747;-69
2021/10/26 00:35:04;;;;;;;;;5.00;5.00;;;;;22.99;42.08;101911.19;5054384;28;45493;-69
2021/10/26 00:37:30;;;;;;;;;4.75;4.00;;;;;22.99;42.70;101913.84;5054892;28;45347;-69
2021/10/26 00:39:55;;;;;;;;;5.75;5.00;;;;;22.98;42.06;101919.34;5057449;28;45404;-69
2021/10/26 00:42:21;;;;;;;;;7.25;4.50;;;;;22.99;42.56;101920.97;5057524;28;47008;-69
2021/10/26 00:44:46;;;;;;;;;5.50;4.25;;;;;22.99;42.50;101918.31;5057347;28;45374;-68
2021/10/26 00:47:12;;;;;;;;;6.00;4.00;;;;;22.99;42.50;101915.66;5057596;28;45753;-68
2021/10/26 00:49:37;;;;;;;;;5.00;5.00;;;;;22.89;42.67;101900.72;5058107;28;45317;-68
2021/10/26 00:52:04;;;;;;;;;3.50;3.00;;;;;22.92;42.42;101903.06;5057089;28;46962;-68
2021/10/26 00:54:31;;;;;;;;;4.50;4.25;;;;;22.96;42.32;101915.00;5057877;28;45391;-69
2021/10/26 00:56:58;;;;;;;;;4.75;4.75;;;;;22.97;42.50;101918.50;5057524;28;45466;-69
2021/10/26 00:59:23;;;;;;;;;4.75;4.75;;;;;22.97;42.26;101921.16;5057351;28;45495;-69
2021/10/26 01:01:48;;;;;;;;;6.00;3.75;;;;;22.97;42.24;101921.16;5057462;28;46247;-69
2021/10/26 01:04:14;;;;;;;;;5.50;4.25;;;;;22.87;42.54;101900.06;5057841;28;45296;-69
2021/10/26 01:06:40;;;;;;;;;6.75;6.00;;;;;22.93;42.17;101919.78;5058102;28;45384;-69
2021/10/26 01:09:06;;;;;;;;;5.00;5.00;;;;;22.96;42.31;101922.97;5057486;28;45331;-69
2021/10/26 01:11:33;;;;;;;;;9.00;6.00;;;;;22.97;42.62;101929.09;5057340;28;46227;-69
2021/10/26 01:13:58;;;;;;;;;4.00;4.00;;;;;22.84;42.08;101903.03;5057286;28;45312;-69
2021/10/26 01:16:25;;;;;;;;;7.00;5.75;;;;;22.91;42.69;101911.16;5057405;28;45242;-69
2021/10/26 01:18:52;;;;;;;;;4.75;4.75;;;;;22.94;42.57;101921.47;5058134;28;45399;-69
2021/10/26 01:21:17;;;;;;;;;4.75;4.00;;;;;22.94;42.43;101924.94;5057151;28;46187;-68
2021/10/26 01:23:43;;;;;;;;;4.25;4.25;;;;;22.94;42.40;101932.06;5057085;28;45441;-69
2021/10/26 01:26:08;;;;;;;;;5.00;5.00;;;;;22.94;42.44;101926.78;5056428;28;45426;-69
2021/10/26 01:28:34;;;;;;;;;5.00;4.50;;;;;22.94;42.21;101929.41;5054392;28;45558;-69
2021/10/26 01:31:00;;;;;;;;;4.75;4.25;;;;;22.95;42.63;101920.47;5057406;28;46021;-68
2021/10/26 01:33:26;;;;;;;;;5.50;5.50;;;;;22.69;42.24;101882.34;5056927;28;45479;-69
2021/10/26 01:35:52;;;;;;;;;7.00;5.75;;;;;22.84;42.72;101905.66;5056912;28;45503;-68
2021/10/26 01:38:17;;;;;;;;;7.00;6.00;;;;;22.90;42.22;101918.28;5055584;28;45456;-69
2021/10/26 01:40:43;;;;;;;;;5.00;5.00;;;;;22.88;42.76;101911.47;5055802;28;46148;-69
2021/10/26 01:43:08;;;;;;;;;5.50;5.00;;;;;22.95;42.58;101921.28;5056327;28;45340;-69
2021/10/26 01:45:33;;;;;;;;;6.25;4.75;;;;;22.95;42.32;101931.09;5056965;28;45461;-69
2021/10/26 01:47:59;;;;;;;;;4.50;4.00;;;;;22.96;42.50;101927.44;5057078;28;45370;-69
2021/10/26 01:50:24;;;;;;;;;7.00;5.50;;;;;22.95;41.90;101934.56;5056433;28;45554;-69
2021/10/26 01:52:50;;;;;;;;;5.50;5.50;;;;;22.96;42.40;101927.44;5086636;27;45396;-69
2021/10/26 01:55:18;;;;;;;;;3.75;3.75;;;;;22.85;42.43;101909.97;5057161;28;45365;-68
2021/10/26 01:57:44;;;;;;;;;4.00;4.00;;;;;22.95;42.55;101921.28;5056921;28;45365;-69
2021/10/26 02:00:11;;;;;;;;;6.50;5.25;;;;;22.94;42.50;101919.66;5056473;28;45374;-69
2021/10/26 02:02:37;;;;;;;;;6.00;4.00;;;;;22.96;42.57;101932.75;5056362;28;45312;-69
2021/10/26 02:05:04;;;;;;;;;5.00;5.00;;;;;22.92;42.43;101924.28;5056551;28;45297;-69
2021/10/26 02:07:30;;;;;;;;;4.75;4.75;;;;;22.93;42.50;101928.59;5056728;28;45514;-68
2021/10/26 02:09:55;;;;;;;;;5.25;5.25;;;;;22.95;42.12;101933.75;5057098;28;45517;-68
2021/10/26 02:12:21;;;;;;;;;5.00;5.00;;;;;22.94;42.10;101919.66;5056071;28;45458;-69
2021/10/26 02:14:47;;;;;;;;;4.75;4.50;;;;;22.93;42.13;101911.81;5056655;28;45489;-69
2021/10/26 02:17:12;;;;;;;;;3.75;3.75;;;;;22.94;42.10;101917.00;5056307;28;45514;-68
2021/10/26 02:19:38;;;;;;;;;4.00;4.00;;;;;22.94;42.57;101914.34;5056442;28;46157;-69
2021/10/26 02:22:04;;;;;;;;;3.00;3.00;;;;;22.87;42.57;101915.97;5056974;28;45379;-69
2021/10/26 02:24:29;;;;;;;;;4.25;4.00;;;;;22.94;42.19;101926.78;5056347;28;45537;-69
2021/10/26 02:26:55;;;;;;;;;5.00;5.00;;;;;22.91;42.60;101919.13;5055794;28;45399;-69
2021/10/26 02:29:21;;;;;;;;;4.25;4.25;;;;;22.93;42.16;101931.25;5056262;28;46660;-68
2021/10/26 02:31:46;;;;;;;;;5.00;5.00;;;;;22.93;42.03;101935.72;5056105;28;45320;-69
2021/10/26 02:34:12;;;;;;;;;5.50;4.00;;;;;22.87;42.49;101928.41;5056705;28;45214;-69
2021/10/26 02:36:37;;;;;;;;;5.75;4.00;;;;;22.93;41.98;101927.75;5056645;28;45538;-69
2021/10/26 02:39:05;;;;;;;;;4.00;4.00;;;;;22.93;42.21;101933.06;5055984;28;46795;-68
2021/10/26 02:41:31;;;;;;;;;6.25;6.00;;;;;22.79;41.98;101913.28;5055678;28;45452;-68
2021/10/26 02:43:56;;;;;;;;;4.25;4.25;;;;;22.93;42.33;101936.53;5056200;28;45493;-68
2021/10/26 02:46:22;;;;;;;;;4.00;3.75;;;;;22.92;42.43;101940.22;5055676;28;45401;-68
2021/10/26 02:48:48;;;;;;;;;3.50;3.00;;;;;22.92;42.31;101931.41;5056571;28;46976;-68
2021/10/26 02:51:14;;;;;;;;;5.75;4.25;;;;;22.81;42.13;101911.28;5055806;28;45484;-68
2021/10/26 02:53:40;;;;;;;;;6.25;4.75;;;;;22.92;41.80;101931.41;5055997;28;45415;-68
2021/10/26 02:56:05;;;;;;;;;4.00;4.00;;;;;22.91;41.77;101927.91;5055550;28;45489;-68
2021/10/26 02:58:30;;;;;;;;;4.50;4.50;;;;;22.91;42.60;101932.38;5056028;28;49487;-68
2021/10/26 03:00:56;;;;;;;;;3.25;3.25;;;;;22.90;41.99;101928.09;5056112;28;45299;-68
2021/10/26 03:03:21;;;;;;;;;4.25;4.25;;;;;22.88;41.85;101919.44;5055492;28;45463;-68
2021/10/26 03:05:47;;;;;;;;;4.25;3.75;;;;;22.91;42.07;101927.91;5055599;28;45226;-68
2021/10/26 03:08:12;;;;;;;;;4.00;4.00;;;;;22.90;41.96;101926.25;5055796;28;45568;-68
2021/10/26 03:10:38;;;;;;;;;5.25;4.00;;;;;22.79;42.52;101914.13;5055408;28;45350;-68
2021/10/26 03:13:04;;;;;;;;;3.25;3.25;;;;;22.85;42.34;101931.19;5055117;28;45249;-68
2021/10/26 03:15:30;;;;;;;;;6.75;5.00;;;;;22.86;41.87;101922.25;5055683;28;45380;-68
2021/10/26 03:17:56;;;;;;;;;3.25;3.25;;;;;22.91;42.35;101927.09;5055217;28;45418;-68
2021/10/26 03:20:21;;;;;;;;;6.00;5.25;;;;;22.87;42.48;101915.97;5053438;28;45363;-68
2021/10/26 03:22:47;;;;;;;;;6.50;4.00;;;;;22.92;42.42;101924.28;5041984;28;45391;-68
2021/10/26 03:25:13;;;;;;;;;5.00;4.50;;;;;22.91;42.22;101919.13;5055010;28;45522;-67
2021/10/26 03:27:39;;;;;;;;;3.00;3.00;;;;;22.93;41.88;101919.78;5053261;28;47399;-68
2021/10/26 03:30:07;;;;;;;;;5.75;4.25;;;;;22.93;41.76;101930.41;5055172;28;45463;-68
2021/10/26 03:32:33;;;;;;;;;4.25;3.25;;;;;22.91;41.88;101917.31;5055164;28;45404;-68
2021/10/26 03:34:58;;;;;;;;;4.50;4.00;;;;;22.93;42.29;101922.44;5055165;28;45412;-68
2021/10/26 03:37:23;;;;;;;;;5.00;4.00;;;;;22.92;41.88;101926.94;5055110;28;46064;-68
2021/10/26 03:39:54;;;;;;;;;6.25;3.50;;;;;22.93;42.29;101930.41;5055359;28;45170;-68
2021/10/26 03:42:20;;;;;;;;;3.50;3.50;;;;;22.93;42.27;101933.06;5055151;28;45406;-69
2021/10/26 03:44:46;;;;;;;;;5.25;4.25;;;;;22.93;42.24;101930.41;5055113;28;45404;-69
2021/10/26 03:47:12;;;;;;;;;4.25;4.25;;;;;22.92;41.77;101932.25;5054328;28;47044;-69
2021/10/26 03:49:37;;;;;;;;;5.00;5.00;;;;;22.92;42.42;101932.25;5055113;28;45517;-69
2021/10/26 03:52:03;;;;;;;;;4.75;4.00;;;;;22.91;41.76;101935.88;5056032;28;45214;-68
2021/10/26 03:54:28;;;;;;;;;4.00;3.75;;;;;22.91;41.87;101929.72;5054670;28;45280;-69
2021/10/26 03:56:54;;;;;;;;;5.00;2.75;;;;;22.92;41.85;101928.75;5054587;28;46108;-70
2021/10/26 03:59:19;;;;;;;;;3.75;3.75;;;;;22.90;42.29;101931.56;5054844;28;45628;-69
2021/10/26 04:01:45;;;;;;;;;6.50;4.00;;;;;22.91;41.95;101935.88;5054913;28;45880;-69
2021/10/26 04:04:10;;;;;;;;;4.75;3.00;;;;;22.88;42.02;101930.03;5055575;28;45300;-69
2021/10/26 04:06:36;;;;;;;;;2.25;2.25;;;;;22.91;41.78;101937.69;5054702;28;50993;-69
2021/10/26 04:09:05;;;;;;;;;5.00;5.00;;;;;22.91;41.96;101937.69;5054260;28;45468;-69
2021/10/26 04:11:39;;;;;;;;;4.00;4.00;;;;;22.89;42.07;101937.88;5054688;28;45346;-69
2021/10/26 04:14:04;;;;;;;;;8.00;3.50;;;;;22.90;41.78;101949.31;5056029;28;45547;-69
2021/10/26 04:16:30;;;;;;;;;3.00;3.00;;;;;22.90;42.36;101946.66;5058287;28;45473;-69
2021/10/26 04:18:56;;;;;;;;;4.25;4.00;;;;;22.89;41.77;101943.19;5058890;28;45390;-69
2021/10/26 04:21:21;;;;;;;;;4.00;3.50;;;;;22.89;42.01;101945.81;5058263;28;45659;-69
2021/10/26 04:23:47;;;;;;;;;5.00;4.00;;;;;22.89;41.80;101951.13;5058068;28;45284;-69
2021/10/26 04:26:15;;;;;;;;;5.00;3.75;;;;;22.87;41.53;101958.44;5056670;28;48262;-69
2021/10/26 04:28:41;;;;;;;;;2.75;2.75;;;;;22.88;41.71;101962.72;5058469;28;45339;-69
2021/10/26 04:31:06;;;;;;;;;3.50;3.25;;;;;22.89;41.86;101968.88;5058549;28;45962;-69
2021/10/26 04:33:31;;;;;;;;;7.00;4.25;;;;;22.84;42.28;101958.75;5058357;28;45397;-67
2021/10/26 04:35:57;;;;;;;;;6.00;4.75;;;;;22.78;41.77;101954.88;5056635;28;48160;-69
2021/10/26 04:38:22;;;;;;;;;5.00;4.00;;;;;22.88;42.23;101975.16;5056307;28;45588;-69
2021/10/26 04:40:49;;;;;;;;;4.00;4.00;;;;;22.88;42.21;101975.16;5058340;28;45416;-68
2021/10/26 04:43:17;;;;;;;;;4.00;3.00;;;;;22.89;42.05;101980.31;5058231;28;45503;-69
2021/10/26 04:45:43;;;;;;;;;4.00;3.50;;;;;22.89;41.85;101969.72;5058125;28;46162;-69
2021/10/26 04:48:16;;;;;;;;;2.25;2.25;;;;;22.89;42.28;101971.53;5057650;28;45233;-69
2021/10/26 04:50:43;;;;;;;;;4.25;4.25;;;;;22.89;41.63;101968.88;5058137;28;45510;-68
2021/10/26 04:53:08;;;;;;;;;3.75;3.00;;;;;22.81;42.29;101959.88;5057547;28;45576;-69
2021/10/26 04:55:34;;;;;;;;;3.00;3.00;;;;;22.89;42.24;101975.03;5057866;28;46031;-69
2021/10/26 04:57:59;;;;;;;;;5.50;4.00;;;;;22.90;41.81;101987.28;5058389;28;45366;-69
2021/10/26 05:00:26;;;;;;;;;3.00;3.00;;;;;22.90;42.14;101986.47;5056575;28;45799;-69
2021/10/26 05:02:52;;;;;;;;;3.25;3.25;;;;;22.89;42.44;101992.75;5057669;28;45428;-69
2021/10/26 05:05:17;;;;;;;;;3.75;3.75;;;;;22.82;41.58;101984.59;5057298;28;46606;-69
2021/10/26 05:07:43;;;;;;;;;3.00;3.00;;;;;22.89;42.40;101990.09;5056078;28;45451;-69
2021/10/26 05:10:08;;;;;;;;;4.00;2.75;;;;;22.90;41.66;101989.13;5058165;28;45501;-67
2021/10/26 05:12:34;;;;;;;;;3.00;3.00;;;;;22.89;41.86;101985.63;5058003;28;45371;-68
2021/10/26 05:14:59;;;;;;;;;3.50;3.50;;;;;22.79;42.14;101972.50;5057339;28;46285;-69
2021/10/26 05:17:25;;;;;;;;;2.25;2.25;;;;;22.84;41.83;101979.97;5057371;28;45385;-70
2021/10/26 05:19:52;;;;;;;;;4.50;3.00;;;;;22.57;42.22;101937.50;5056493;28;45404;-69
2021/10/26 05:22:19;;;;;;;;;2.00;2.00;;;;;22.77;42.20;101974.44;5057300;28;45377;-68
2021/10/26 05:24:45;;;;;;;;;2.50;2.50;;;;;22.90;41.61;101999.75;5057161;28;46415;-69
2021/10/26 05:27:10;;;;;;;;;3.50;3.50;;;;;22.82;41.96;101985.41;5057050;28;45288;-67
2021/10/26 05:29:39;;;;;;;;;5.00;3.50;;;;;22.83;41.77;101979.13;5057303;28;45530;-69
2021/10/26 05:32:06;;;;;;;;;2.00;2.00;;;;;22.88;41.79;101986.63;5057294;28;45283;-68
2021/10/26 05:34:31;;;;;;;;;2.00;2.00;;;;;22.87;41.71;101992.09;5057182;28;46581;-68
2021/10/26 05:36:57;;;;;;;;;4.00;4.00;;;;;22.88;41.63;101986.63;5057066;28;45289;-67
2021/10/26 05:39:22;;;;;;;;;4.75;3.00;;;;;22.88;41.72;101993.72;5057255;28;45363;-68
2021/10/26 05:41:48;;;;;;;;;2.00;2.00;;;;;22.88;42.17;101988.44;5055232;28;45497;-67
2021/10/26 05:44:13;;;;;;;;;3.00;2.00;;;;;22.88;41.79;101993.72;5048810;28;46406;-68
2021/10/26 05:46:39;;;;;;;;;6.25;4.00;;;;;22.82;41.71;101989.91;5056697;28;45478;-66
2021/10/26 05:49:04;;;;;;;;;3.50;3.00;;;;;22.88;41.83;101991.91;5057650;28;45754;-68
2021/10/26 05:51:30;;;;;;;;;3.75;3.75;;;;;22.87;42.32;102000.06;5055957;28;46285;-68
2021/10/26 05:53:55;;;;;;;;;2.25;2.25;;;;;22.77;42.05;101985.06;5056766;28;45494;-68
2021/10/26 05:56:23;;;;;;;;;4.50;3.25;;;;;22.77;42.52;101990.38;5056158;28;45371;-67
2021/10/26 05:58:50;;;;;;;;;3.00;3.00;;;;;22.86;42.52;102007.16;5056588;28;45558;-67
2021/10/26 06:01:16;;;;;;;;;2.00;2.00;;;;;22.82;42.38;102003.19;5048342;28;45494;-68
2021/10/26 06:03:41;;;;;;;;;4.25;4.00;;;;;22.85;42.52;101998.38;5046198;28;47010;-65
2021/10/26 06:06:06;;;;;;;;;3.00;3.00;;;;;22.85;42.09;102008.16;5046918;28;45494;-67
2021/10/26 06:08:32;;;;;;;;;5.50;3.00;;;;;22.87;42.59;102008.84;5050259;28;45473;-67
2021/10/26 06:11:03;;;;;;;;;2.00;2.00;;;;;22.87;42.17;102014.16;5056305;28;45482;-65
2021/10/26 06:13:31;;;;;;;;;2.25;2.25;;;;;22.87;42.55;102006.19;5056236;28;47146;-66
2021/10/26 06:15:58;;;;;;;;;2.75;2.00;;;;;22.88;42.44;102009.66;5055753;28;45923;-74
2021/10/26 06:18:23;;;;;;;;;2.25;2.25;;;;;22.89;42.14;102009.50;5056043;28;45580;-66
2021/10/26 06:20:49;;;;;;;;;3.00;3.00;;;;;22.89;41.90;102021.94;5056450;28;45225;-64
2021/10/26 06:23:15;;;;;;;;;5.75;3.25;;;;;22.88;42.52;102014.97;5056360;28;46492;-65
2021/10/26 06:25:41;;;;;;;;;1.75;1.75;;;;;22.89;42.28;102017.47;5056171;28;45335;-66
2021/10/26 06:28:06;;;;;;;;;2.00;2.00;;;;;22.89;42.40;102022.78;5057158;28;45440;-66
2021/10/26 06:30:33;;;;;;;;;2.00;2.00;;;;;22.81;42.05;102010.31;5056333;28;45327;-65
2021/10/26 06:32:58;;;;;;;;;2.75;2.00;;;;;22.90;42.43;102026.28;5055744;28;45492;-66
2021/10/26 06:35:24;;;;;;;;;4.75;2.00;;;;;22.90;42.25;102026.28;5055964;28;45512;-66
2021/10/26 06:37:49;;;;;;;;;4.00;2.00;;;;;22.90;42.28;102021.78;5054896;28;45402;-66
2021/10/26 06:40:19;;;;;;;;;2.50;2.50;;;;;22.88;42.47;102018.44;5056424;28;45405;-66
2021/10/26 06:42:45;;;;;;;;;2.00;2.00;;;;;22.89;42.14;102022.78;5056515;28;46140;-66
2021/10/26 06:45:11;;;;;;;;;2.50;2.00;;;;;22.88;42.29;102022.94;5055594;28;45469;-66
2021/10/26 06:47:37;;;;;;;;;3.75;3.00;;;;;22.89;42.30;102030.75;5055649;28;45473;-66
2021/10/26 06:50:05;;;;;;;;;2.75;2.75;;;;;22.87;42.02;102027.41;5056053;28;45372;-66
2021/10/26 06:52:31;;;;;;;;;6.00;4.50;;;;;22.90;42.28;102044.84;5055649;28;46301;-66
2021/10/26 06:54:56;;;;;;;;;2.00;2.00;;;;;22.88;41.82;102042.34;5056399;28;45416;-66
2021/10/26 06:57:23;;;;;;;;;3.00;3.00;;;;;22.90;42.40;102047.50;5056000;28;45309;-66
2021/10/26 06:59:49;;;;;;;;;1.00;1.00;;;;;22.88;42.20;102054.78;5055803;28;45624;-66
2021/10/26 07:02:14;;;;;;;;;1.50;1.50;;;;;22.89;41.78;102061.75;5055133;28;46933;-66
2021/10/26 07:04:40;;;;;;;;;2.00;2.00;;;;;22.89;41.82;102059.94;5055889;28;45324;-66
2021/10/26 07:07:05;;;;;;;;;2.50;2.00;;;;;22.64;42.40;102019.94;5056534;28;45359;-66
2021/10/26 07:09:30;;;;;;;;;3.00;3.00;;;;;22.89;41.87;102072.38;5055777;28;45338;-66
2021/10/26 07:11:57;;;;;;;;;3.00;2.00;;;;;22.78;42.00;102057.53;5054115;28;48231;-66
2021/10/26 07:14:22;;;;;;;;;2.00;2.00;;;;;22.88;42.04;102076.84;5055494;28;45493;-66
2021/10/26 07:16:48;;;;;;;;;1.75;1.75;;;;;22.83;41.93;102084.44;5055254;28;45425;-66
2021/10/26 07:19:13;;;;;;;;;3.75;3.75;;;;;22.89;41.83;102093.59;5055962;28;45569;-66
2021/10/26 07:21:38;;;;;;;;;3.00;3.00;;;;;22.88;42.32;102094.56;5054743;28;45434;-66
2021/10/26 07:24:05;;;;;;;;;4.75;2.25;;;;;22.87;41.92;102095.56;5055280;28;45485;-66
2021/10/26 07:26:30;;;;;;;;;2.25;2.25;;;;;22.83;42.08;102095.03;5055603;28;45489;-66
2021/10/26 07:28:56;;;;;;;;;2.75;2.00;;;;;22.85;41.77;102104.50;5055420;28;45410;-66
2021/10/26 07:31:24;;;;;;;;;3.25;3.25;;;;;22.87;41.79;102107.03;5054918;28;46185;-66
2021/10/26 07:33:51;;;;;;;;;2.75;2.00;;;;;22.88;41.76;102113.16;5055845;28;45398;-66
2021/10/26 07:36:17;;;;;;;;;2.50;2.50;;;;;22.76;41.79;102097.50;5055124;28;45454;-66
2021/10/26 07:38:43;;;;;;;;;2.00;2.00;;;;;22.85;41.92;102116.94;5055233;28;45493;-66
2021/10/26 07:41:09;;;;;;;;;1.25;1.25;;;;;22.85;42.20;102124.91;5054999;28;45946;-66
2021/10/26 07:43:35;;;;;;;;;6.25;4.00;;;;;22.87;42.29;102124.75;5055219;28;45648;-66
2021/10/26 07:46:03;;;;;;;;;3.75;3.00;;;;;22.85;41.65;102131.06;5055313;28;45364;-66
2021/10/26 07:48:29;;;;;;;;;3.00;2.00;;;;;22.87;41.83;102136.22;5054799;28;45327;-66
2021/10/26 07:50:58;;;;;;;;;2.75;2.75;;;;;22.84;42.19;102126.75;5053369;28;47550;-66
2021/10/26 07:53:29;;;;;;;;;2.50;2.00;;;;;22.87;41.98;102132.72;5054833;28;45505;-67
2021/10/26 07:55:55;;;;;;;;;2.00;2.00;;;;;22.86;41.52;102137.19;5054985;28;45512;-66
2021/10/26 07:58:20;;;;;;;;;3.25;3.25;;;;;22.87;41.57;102138.88;5055148;28;45332;-66
2021/10/26 08:00:46;;;;;;;;;4.00;4.00;;;;;22.87;41.91;102138.88;5054658;28;47016;-66
2021/10/26 08:03:12;;;;;;;;;3.00;3.00;;;;;22.84;42.20;102137.38;5054651;28;45536;-66
2021/10/26 08:05:37;;;;;;;;;2.00;2.00;;;;;22.83;41.72;102133.03;5054781;28;45312;-66
2021/10/26 08:08:03;;;;;;;;;3.00;2.00;;;;;22.88;42.01;102145.00;5054990;28;45367;-66
2021/10/26 08:10:28;;;;;;;;;4.00;2.00;;;;;22.89;41.63;102149.31;5054493;28;46225;-66
2021/10/26 08:12:54;;;;;;;;;4.50;4.00;;;;;22.84;42.03;102137.38;5055135;28;45426;-66
2021/10/26 08:15:20;;;;;;;;;2.50;1.00;;;;;22.89;41.55;102151.97;5054413;28;45740;-66
2021/10/26 08:17:45;;;;;;;;;2.00;2.00;;;;;22.87;41.55;102151.31;5054672;28;45282;-65
2021/10/26 08:20:11;;;;;;;;;2.00;2.00;;;;;22.87;41.93;102149.50;5054350;28;45985;-65
2021/10/26 08:22:39;;;;;;;;;1.00;1.00;;;;;22.85;42.18;102146.97;5053525;28;45422;-65
2021/10/26 08:25:13;;;;;;;;;3.00;3.00;;;;;22.83;41.65;102148.94;5041215;28;46345;-66
2021/10/26 08:27:38;;;;;;;;;2.00;2.00;;;;;22.81;41.78;102150.09;5054799;28;45258;-65
2021/10/26 08:30:11;;;;;;;;;4.00;2.75;;;;;22.80;41.66;102154.56;5053466;28;47003;-66
2021/10/26 08:35:29;;;;;;;;;2.25;2.00;;;;;22.75;41.57;102146.22;5025229;28;45476;-66
2021/10/26 08:38:01;;;;;;;;;2.00;2.00;;;;;22.88;41.64;102152.94;5014417;28;45516;-66
2021/10/26 08:40:28;;;;;;;;;5.50;2.50;;;;;22.88;42.17;102158.25;5012908;28;46333;-65
2021/10/26 08:42:57;;;;;;;;;2.25;2.25;;;;;22.88;41.62;102160.91;5016903;28;45592;-66
2021/10/26 08:45:25;;;;;;;;;2.75;1.25;;;;;22.81;41.75;102153.59;5015715;28;45402;-66
2021/10/26 08:47:51;;;;;;;;;3.75;2.00;;;;;22.87;42.16;102165.41;5016130;28;45396;-65
2021/10/26 08:50:19;;;;;;;;;3.00;3.00;;;;;22.82;42.00;102155.22;5016102;28;46115;-65
2021/10/26 08:52:44;;;;;;;;;2.00;2.00;;;;;22.86;41.55;102163.72;5012789;28;45444;-66
2021/10/26 08:55:10;;;;;;;;;2.50;2.50;;;;;22.57;41.86;102120.53;5015635;28;45409;-65
2021/10/26 08:57:35;;;;;;;;;2.00;2.00;;;;;22.85;41.93;102160.25;5016372;28;45538;-67
2021/10/26 09:00:07;;;;;;;;;2.00;2.00;;;;;22.86;42.01;102166.38;5016941;28;46079;-65
2021/10/26 09:02:44;;;;;;;;;2.00;2.00;;;;;22.76;42.24;102149.72;5019595;28;45838;-66
2021/10/26 09:05:23;;;;;;;;;1.25;1.25;;;;;22.85;41.60;102165.53;5019601;28;45476;-66
2021/10/26 09:08:10;;;;;;;;;3.50;2.00;;;;;22.86;41.47;102163.72;5001238;28;45327;-66
2021/10/26 09:10:37;;;;;;;;;3.00;3.00;;;;;22.74;42.16;102148.03;5015281;28;46271;-66
2021/10/26 09:18:37;;;;;;;;;3.00;3.00;;;;;22.85;42.08;102162.06;5057575;28;45549;-66
2021/10/26 09:21:03;;;;;;;;;3.75;3.50;;;;;22.85;41.68;102162.91;5056911;28;46864;-66
2021/10/26 09:23:28;;;;;;;;;2.00;2.00;;;;;22.85;41.84;102157.59;5055948;28;45321;-65
2021/10/26 09:25:57;;;;;;;;;2.75;2.75;;;;;22.85;41.76;102152.28;5057263;28;45486;-66
2021/10/26 09:28:22;;;;;;;;;4.00;3.00;;;;;22.74;41.75;102139.28;5057003;28;45351;-66
2021/10/26 09:31:25;;;;;;;;;1.00;1.00;;;;;22.78;42.12;102145.09;5057650;28;45971;-66
2021/10/26 09:33:59;;;;;;;;;2.25;2.25;;;;;22.74;41.56;102137.44;5042755;28;45465;-66
2021/10/26 09:36:30;;;;;;;;;2.00;2.00;;;;;22.83;42.00;102145.47;5057032;28;45258;-66
2021/10/26 09:39:06;;;;;;;;;2.00;2.00;;;;;22.87;41.56;102156.63;5055671;28;45344;-66
2021/10/26 09:41:34;;;;;;;;;3.00;2.00;;;;;22.87;42.08;102151.31;5056535;28;46277;-66
2021/10/26 09:44:21;;;;;;;;;2.25;2.25;;;;;22.88;41.38;102163.56;5056919;28;45423;-66
2021/10/26 09:47:19;;;;;;;;;3.75;2.00;;;;;22.87;41.98;102153.97;5042324;28;45548;-66
2021/10/26 09:49:59;;;;;;;;;2.00;2.00;;;;;22.88;41.87;102158.25;5041853;28;45485;-66
2021/10/26 09:52:36;;;;;;;;;2.50;2.00;;;;;22.76;41.39;102129.34;5056780;28;46330;-66
2021/10/26 09:55:28;;;;;;;;;3.00;3.00;;;;;22.87;41.93;102153.97;5056663;28;45502;-66
2021/10/26 09:58:01;;;;;;;;;3.25;3.00;;;;;22.85;41.98;102154.94;5054991;28;45376;-66
2021/10/26 10:00:29;;;;;;;;;3.00;3.00;;;;;22.87;41.57;102153.97;5056546;28;45414;-66
2021/10/26 10:02:59;;;;;;;;;2.75;2.75;;;;;22.85;41.91;102148.78;5056282;28;47263;-66
2021/10/26 10:05:27;;;;;;;;;2.00;2.00;;;;;22.85;41.55;102160.25;5056628;28;45431;-66
2021/10/26 10:07:53;;;;;;;;;2.75;2.75;;;;;22.85;42.09;102162.91;5056035;28;45434;-66
2021/10/26 10:10:18;;;;;;;;;1.75;1.75;;;;;22.85;41.59;102159.41;5056563;28;45371;-66
2021/10/26 10:12:45;;;;;;;;;1.75;1.75;;;;;22.86;42.04;102166.38;5056947;28;45431;-66
2021/10/26 10:15:12;;;;;;;;;2.50;2.00;;;;;22.85;41.32;102168.19;5056388;28;45478;-66
2021/10/26 10:17:37;;;;;;;;;3.00;2.75;;;;;22.55;41.55;102117.19;5056358;28;45333;-66
2021/10/26 10:20:11;;;;;;;;;3.00;2.50;;;;;22.84;41.43;102161.25;5056557;28;45385;-66
2021/10/26 10:22:41;;;;;;;;;2.00;2.00;;;;;22.84;42.00;102161.25;5040514;28;45900;-66
2021/10/26 10:25:09;;;;;;;;;2.00;2.00;;;;;22.84;41.48;102161.25;5052510;28;45513;-66
2021/10/26 10:27:42;;;;;;;;;2.75;2.00;;;;;22.84;41.55;102169.22;5056436;28;45393;-66
2021/10/26 10:30:09;;;;;;;;;3.50;2.00;;;;;22.84;41.70;102161.25;5056010;28;47403;-66
2021/10/26 10:32:36;;;;;;;;;2.25;2.00;;;;;22.85;41.74;102156.75;5056133;28;47149;-66
2021/10/26 10:35:06;;;;;;;;;3.00;3.00;;;;;22.84;41.75;102155.94;5055917;28;45568;-66
2021/10/26 10:37:32;;;;;;;;;2.00;1.50;;;;;22.85;41.81;102154.94;5056452;28;45503;-66
2021/10/26 10:39:59;;;;;;;;;4.00;4.00;;;;;22.84;42.05;102158.59;5056445;28;45289;-66
2021/10/26 10:42:30;;;;;;;;;1.50;1.00;;;;;22.84;41.52;102157.75;5055738;28;45406;-66
2021/10/26 10:44:58;;;;;;;;;2.00;2.00;;;;;22.85;41.63;102156.75;5055536;28;45413;-66
2021/10/26 10:47:39;;;;;;;;;1.00;1.00;;;;;22.82;41.50;102157.88;5056064;28;45485;-66
2021/10/26 10:50:20;;;;;;;;;2.00;2.00;;;;;22.83;41.92;102150.75;5055854;28;45522;-66
2021/10/26 10:53:06;;;;;;;;;2.00;2.00;;;;;22.84;42.04;102158.59;5041202;28;46148;-66
2021/10/26 10:55:32;;;;;;;;;1.00;1.00;;;;;22.83;41.72;102156.91;5055510;28;45398;-66
2021/10/26 10:58:36;;;;;;;;;2.50;2.50;;;;;22.82;41.97;102151.78;5056642;28;45385;-66
2021/10/26 11:01:20;;;;;;;;;2.00;2.00;;;;;22.84;41.51;102163.06;5056174;28;45335;-66
2021/10/26 11:03:46;;;;;;;;;2.50;2.00;;;;;22.80;41.85;102159.03;5055898;28;46271;-67
2021/10/26 11:06:40;;;;;;;;;4.00;2.50;;;;;22.84;42.03;102158.59;5055442;28;45390;-66
2021/10/26 11:09:34;;;;;;;;;2.25;2.25;;;;;22.85;41.53;102154.09;5055292;28;45354;-66
2021/10/26 11:12:06;;;;;;;;;2.50;2.00;;;;;22.85;41.60;102160.25;5048385;28;45263;-66
2021/10/26 11:14:42;;;;;;;;;2.00;2.00;;;;;22.79;41.68;102139.66;5055199;28;46388;-66
2021/10/26 11:17:32;;;;;;;;;2.50;2.00;;;;;22.86;42.03;102147.81;5055623;28;45362;-66
2021/10/26 11:20:11;;;;;;;;;1.00;1.00;;;;;22.86;42.01;102153.13;5042457;28;45415;-66
2021/10/26 11:22:45;;;;;;;;;2.75;2.75;;;;;22.85;41.65;102141.66;5038775;28;45404;-65
2021/10/26 11:25:16;;;;;;;;;3.00;1.75;;;;;22.85;41.66;102144.31;5052061;28;45395;-67
2021/10/26 11:27:42;;;;;;;;;2.25;2.25;;;;;22.83;41.83;102137.50;5055188;28;45495;-66
2021/10/26 11:30:42;;;;;;;;;2.25;2.00;;;;;22.85;41.87;102135.53;5055267;28;45677;-66
2021/10/26 11:33:14;;;;;;;;;3.00;3.00;;;;;22.85;42.04;102132.88;4988859;28;45314;-65
2021/10/26 11:36:05;;;;;;;;;2.25;2.25;;;;;22.85;41.72;102136.34;4993077;28;46977;-66